sensor_id;sensor_type;location;lat;lon;timestamp;P1;durP1;ratioP1;P2;durP2;ratioP2
17207;SDS011;8720;48.488;9.202;2023-01-15T00:01:20;1.00;;;0.53;;
17207;SDS011;8720;48.488;9.202;2023-01-15T00:03:50;1.00;;;0.60;;
17207;SDS011;8720;48.488;9.202;2023-01-15T00:06:18;1.57;;;0.70;;
17207;SDS011;8720;48.488;9.202;2023-01-15T00:08:46;0.83;;;0.50;;
17207;SDS011;8720;48.488;9.202;2023-01-15T00:11:14;0.90;;;0.60;;
17207;SDS011;8720;48.488;9.202;2023-01-15T00:13:42;0.90;;;0.57;;
17207;SDS011;8720;48.488;9.202;2023-01-15T00:16:10;1.20;;;0.73;;
17207;SDS011;8720;48.488;9.202;2023-01-15T00:18:41;1.13;;;0.60;;
17207;SDS011;8720;48.488;9.202;2023-01-15T00:21:10;0.90;;;0.50;;
17207;SDS011;8720;48.488;9.202;2023-01-15T00:23:38;1.00;;;0.60;;
17207;SDS011;8720;48.488;9.202;2023-01-15T00:26:26;0.90;;;0.50;;
17207;SDS011;8720;48.488;9.202;2023-01-15T00:29:13;2.07;;;0.60;;
17207;SDS011;8720;48.488;9.202;2023-01-15T00:31:41;1.10;;;0.70;;
17207;SDS011;8720;48.488;9.202;2023-01-15T00:34:19;1.00;;;0.60;;
17207;SDS011;8720;48.488;9.202;2023-01-15T00:36:46;0.90;;;0.50;;
17207;SDS011;8720;48.488;9.202;2023-01-15T00:39:13;1.00;;;0.50;;
17207;SDS011;8720;48.488;9.202;2023-01-15T00:41:40;0.90;;;0.50;;
17207;SDS011;8720;48.488;9.202;2023-01-15T00:44:08;0.80;;;0.50;;
17207;SDS011;8720;48.488;9.202;2023-01-15T00:46:35;1.00;;;0.50;;
17207;SDS011;8720;48.488;9.202;2023-01-15T00:49:02;0.90;;;0.60;;
17207;SDS011;8720;48.488;9.202;2023-01-15T00:51:32;0.90;;;0.60;;
17207;SDS011;8720;48.488;9.202;2023-01-15T00:53:59;0.93;;;0.70;;
17207;SDS011;8720;48.488;9.202;2023-01-15T00:56:27;0.90;;;0.50;;
17207;SDS011;8720;48.488;9.202;2023-01-15T00:58:54;0.93;;;0.70;;
17207;SDS011;8720;48.488;9.202;2023-01-15T01:01:22;1.20;;;0.70;;
17207;SDS011;8720;48.488;9.202;2023-01-15T01:03:51;0.90;;;0.60;;
17207;SDS011;8720;48.488;9.202;2023-01-15T01:06:21;1.00;;;0.60;;
17207;SDS011;8720;48.488;9.202;2023-01-15T01:08:50;0.90;;;0.60;;
17207;SDS011;8720;48.488;9.202;2023-01-15T01:11:18;1.00;;;0.50;;
17207;SDS011;8720;48.488;9.202;2023-01-15T01:13:52;0.90;;;0.60;;
17207;SDS011;8720;48.488;9.202;2023-01-15T01:16:24;0.97;;;0.53;;
17207;SDS011;8720;48.488;9.202;2023-01-15T01:18:57;1.00;;;0.60;;
17207;SDS011;8720;48.488;9.202;2023-01-15T01:21:28;0.90;;;0.50;;
17207;SDS011;8720;48.488;9.202;2023-01-15T01:23:59;1.60;;;0.50;;
17207;SDS011;8720;48.488;9.202;2023-01-15T01:26:27;0.90;;;0.60;;
17207;SDS011;8720;48.488;9.202;2023-01-15T01:28:55;0.90;;;0.50;;
17207;SDS011;8720;48.488;9.202;2023-01-15T01:31:23;0.90;;;0.60;;
17207;SDS011;8720;48.488;9.202;2023-01-15T01:33:52;0.80;;;0.50;;
17207;SDS011;8720;48.488;9.202;2023-01-15T01:36:25;0.93;;;0.60;;
17207;SDS011;8720;48.488;9.202;2023-01-15T01:38:54;0.90;;;0.50;;
17207;SDS011;8720;48.488;9.202;2023-01-15T01:41:23;0.90;;;0.60;;
17207;SDS011;8720;48.488;9.202;2023-01-15T01:43:54;0.80;;;0.50;;
17207;SDS011;8720;48.488;9.202;2023-01-15T01:46:25;0.80;;;0.50;;
17207;SDS011;8720;48.488;9.202;2023-01-15T01:48:56;0.80;;;0.50;;
17207;SDS011;8720;48.488;9.202;2023-01-15T01:51:28;1.67;;;0.60;;
17207;SDS011;8720;48.488;9.202;2023-01-15T01:54:03;0.90;;;0.50;;
17207;SDS011;8720;48.488;9.202;2023-01-15T01:56:34;0.90;;;0.60;;
17207;SDS011;8720;48.488;9.202;2023-01-15T01:59:02;1.00;;;0.60;;
17207;SDS011;8720;48.488;9.202;2023-01-15T02:01:32;1.40;;;0.50;;
17207;SDS011;8720;48.488;9.202;2023-01-15T02:04:00;0.90;;;0.50;;
17207;SDS011;8720;48.488;9.202;2023-01-15T02:06:29;0.90;;;0.50;;
17207;SDS011;8720;48.488;9.202;2023-01-15T02:08:58;1.10;;;0.80;;
17207;SDS011;8720;48.488;9.202;2023-01-15T02:11:27;0.80;;;0.50;;
17207;SDS011;8720;48.488;9.202;2023-01-15T02:13:59;1.20;;;0.60;;
17207;SDS011;8720;48.488;9.202;2023-01-15T02:16:36;1.73;;;0.50;;
17207;SDS011;8720;48.488;9.202;2023-01-15T02:19:15;0.80;;;0.50;;
17207;SDS011;8720;48.488;9.202;2023-01-15T02:21:57;1.00;;;0.50;;
17207;SDS011;8720;48.488;9.202;2023-01-15T02:24:39;0.90;;;0.50;;
17207;SDS011;8720;48.488;9.202;2023-01-15T02:27:25;0.90;;;0.50;;
17207;SDS011;8720;48.488;9.202;2023-01-15T02:29:55;0.80;;;0.50;;
17207;SDS011;8720;48.488;9.202;2023-01-15T02:32:37;1.23;;;0.60;;
17207;SDS011;8720;48.488;9.202;2023-01-15T02:35:12;1.00;;;0.50;;
17207;SDS011;8720;48.488;9.202;2023-01-15T02:37:48;0.90;;;0.50;;
17207;SDS011;8720;48.488;9.202;2023-01-15T02:40:22;0.90;;;0.60;;
17207;SDS011;8720;48.488;9.202;2023-01-15T02:42:53;0.83;;;0.50;;
17207;SDS011;8720;48.488;9.202;2023-01-15T02:45:23;1.67;;;0.57;;
17207;SDS011;8720;48.488;9.202;2023-01-15T02:48:01;0.83;;;0.50;;
17207;SDS011;8720;48.488;9.202;2023-01-15T02:50:37;0.90;;;0.60;;
17207;SDS011;8720;48.488;9.202;2023-01-15T02:53:11;0.80;;;0.50;;
17207;SDS011;8720;48.488;9.202;2023-01-15T02:55:46;0.90;;;0.50;;
17207;SDS011;8720;48.488;9.202;2023-01-15T02:58:28;0.80;;;0.50;;
17207;SDS011;8720;48.488;9.202;2023-01-15T03:03:39;1.10;;;0.53;;
17207;SDS011;8720;48.488;9.202;2023-01-15T03:06:17;0.90;;;0.50;;
17207;SDS011;8720;48.488;9.202;2023-01-15T03:08:55;1.07;;;0.50;;
17207;SDS011;8720;48.488;9.202;2023-01-15T03:11:22;0.80;;;0.50;;
17207;SDS011;8720;48.488;9.202;2023-01-15T03:13:59;0.80;;;0.50;;
17207;SDS011;8720;48.488;9.202;2023-01-15T03:16:33;1.20;;;0.50;;
17207;SDS011;8720;48.488;9.202;2023-01-15T03:19:05;1.47;;;0.70;;
17207;SDS011;8720;48.488;9.202;2023-01-15T03:21:46;1.13;;;0.50;;
17207;SDS011;8720;48.488;9.202;2023-01-15T03:24:24;0.90;;;0.50;;
17207;SDS011;8720;48.488;9.202;2023-01-15T03:26:58;0.80;;;0.50;;
17207;SDS011;8720;48.488;9.202;2023-01-15T03:29:29;0.90;;;0.50;;
17207;SDS011;8720;48.488;9.202;2023-01-15T03:32:04;0.80;;;0.50;;
17207;SDS011;8720;48.488;9.202;2023-01-15T03:34:32;0.90;;;0.50;;
17207;SDS011;8720;48.488;9.202;2023-01-15T03:37:08;1.10;;;0.50;;
17207;SDS011;8720;48.488;9.202;2023-01-15T03:39:39;0.90;;;0.50;;
17207;SDS011;8720;48.488;9.202;2023-01-15T03:42:19;0.80;;;0.50;;
17207;SDS011;8720;48.488;9.202;2023-01-15T03:45:04;0.80;;;0.50;;
17207;SDS011;8720;48.488;9.202;2023-01-15T03:47:44;0.90;;;0.50;;
17207;SDS011;8720;48.488;9.202;2023-01-15T03:50:26;1.00;;;0.50;;
17207;SDS011;8720;48.488;9.202;2023-01-15T03:53:04;0.80;;;0.50;;
17207;SDS011;8720;48.488;9.202;2023-01-15T03:55:48;1.50;;;0.50;;
17207;SDS011;8720;48.488;9.202;2023-01-15T03:58:25;1.00;;;0.50;;
17207;SDS011;8720;48.488;9.202;2023-01-15T04:01:06;1.23;;;0.50;;
17207;SDS011;8720;48.488;9.202;2023-01-15T04:03:40;1.00;;;0.60;;
17207;SDS011;8720;48.488;9.202;2023-01-15T04:06:12;1.00;;;0.60;;
17207;SDS011;8720;48.488;9.202;2023-01-15T04:08:41;0.80;;;0.40;;
17207;SDS011;8720;48.488;9.202;2023-01-15T04:11:12;0.80;;;0.53;;
17207;SDS011;8720;48.488;9.202;2023-01-15T04:13:51;0.83;;;0.47;;
17207;SDS011;8720;48.488;9.202;2023-01-15T04:16:33;0.90;;;0.50;;
17207;SDS011;8720;48.488;9.202;2023-01-15T04:19:01;0.90;;;0.50;;
17207;SDS011;8720;48.488;9.202;2023-01-15T04:21:32;0.80;;;0.50;;
17207;SDS011;8720;48.488;9.202;2023-01-15T04:23:59;0.80;;;0.50;;
17207;SDS011;8720;48.488;9.202;2023-01-15T04:26:27;0.80;;;0.50;;
17207;SDS011;8720;48.488;9.202;2023-01-15T04:28:54;0.80;;;0.50;;
17207;SDS011;8720;48.488;9.202;2023-01-15T04:31:21;0.90;;;0.57;;
17207;SDS011;8720;48.488;9.202;2023-01-15T04:33:50;0.80;;;0.50;;
17207;SDS011;8720;48.488;9.202;2023-01-15T04:36:17;1.10;;;0.50;;
17207;SDS011;8720;48.488;9.202;2023-01-15T04:38:44;1.30;;;0.50;;
17207;SDS011;8720;48.488;9.202;2023-01-15T04:41:11;1.03;;;0.57;;
17207;SDS011;8720;48.488;9.202;2023-01-15T04:43:56;0.80;;;0.50;;
17207;SDS011;8720;48.488;9.202;2023-01-15T04:46:32;0.90;;;0.50;;
17207;SDS011;8720;48.488;9.202;2023-01-15T04:49:02;0.90;;;0.53;;
17207;SDS011;8720;48.488;9.202;2023-01-15T04:51:30;0.90;;;0.53;;
17207;SDS011;8720;48.488;9.202;2023-01-15T04:53:57;0.80;;;0.40;;
17207;SDS011;8720;48.488;9.202;2023-01-15T04:56:29;0.80;;;0.50;;
17207;SDS011;8720;48.488;9.202;2023-01-15T04:58:58;0.80;;;0.50;;
17207;SDS011;8720;48.488;9.202;2023-01-15T05:01:26;0.90;;;0.50;;
17207;SDS011;8720;48.488;9.202;2023-01-15T05:03:54;0.80;;;0.50;;
17207;SDS011;8720;48.488;9.202;2023-01-15T05:06:23;0.93;;;0.50;;
17207;SDS011;8720;48.488;9.202;2023-01-15T05:08:51;3.23;;;0.60;;
17207;SDS011;8720;48.488;9.202;2023-01-15T05:11:18;0.90;;;0.60;;
17207;SDS011;8720;48.488;9.202;2023-01-15T05:13:46;1.00;;;0.60;;
17207;SDS011;8720;48.488;9.202;2023-01-15T05:16:14;1.00;;;0.60;;
17207;SDS011;8720;48.488;9.202;2023-01-15T05:18:43;0.80;;;0.50;;
17207;SDS011;8720;48.488;9.202;2023-01-15T05:21:13;0.90;;;0.70;;
17207;SDS011;8720;48.488;9.202;2023-01-15T05:23:46;0.90;;;0.60;;
17207;SDS011;8720;48.488;9.202;2023-01-15T05:26:14;1.00;;;0.67;;
17207;SDS011;8720;48.488;9.202;2023-01-15T05:28:42;0.90;;;0.50;;
17207;SDS011;8720;48.488;9.202;2023-01-15T05:31:10;0.80;;;0.50;;
17207;SDS011;8720;48.488;9.202;2023-01-15T05:33:40;0.80;;;0.50;;
17207;SDS011;8720;48.488;9.202;2023-01-15T05:36:09;0.80;;;0.50;;
17207;SDS011;8720;48.488;9.202;2023-01-15T05:38:39;2.77;;;2.33;;
17207;SDS011;8720;48.488;9.202;2023-01-15T05:41:09;1.10;;;0.70;;
17207;SDS011;8720;48.488;9.202;2023-01-15T05:43:58;0.90;;;0.50;;
17207;SDS011;8720;48.488;9.202;2023-01-15T05:46:27;1.10;;;0.50;;
17207;SDS011;8720;48.488;9.202;2023-01-15T05:48:58;0.90;;;0.50;;
17207;SDS011;8720;48.488;9.202;2023-01-15T05:51:26;0.80;;;0.53;;
17207;SDS011;8720;48.488;9.202;2023-01-15T05:53:53;1.00;;;0.60;;
17207;SDS011;8720;48.488;9.202;2023-01-15T05:56:24;0.80;;;0.50;;
17207;SDS011;8720;48.488;9.202;2023-01-15T05:58:51;1.20;;;0.50;;
17207;SDS011;8720;48.488;9.202;2023-01-15T06:01:19;1.00;;;0.50;;
17207;SDS011;8720;48.488;9.202;2023-01-15T06:03:47;0.80;;;0.50;;
17207;SDS011;8720;48.488;9.202;2023-01-15T06:06:15;0.80;;;0.50;;
17207;SDS011;8720;48.488;9.202;2023-01-15T06:08:43;0.90;;;0.50;;
17207;SDS011;8720;48.488;9.202;2023-01-15T06:11:11;0.80;;;0.50;;
17207;SDS011;8720;48.488;9.202;2023-01-15T06:13:40;0.83;;;0.50;;
17207;SDS011;8720;48.488;9.202;2023-01-15T06:16:07;1.00;;;0.50;;
17207;SDS011;8720;48.488;9.202;2023-01-15T06:18:35;0.80;;;0.50;;
17207;SDS011;8720;48.488;9.202;2023-01-15T06:21:03;1.20;;;0.50;;
17207;SDS011;8720;48.488;9.202;2023-01-15T06:23:32;0.80;;;0.50;;
17207;SDS011;8720;48.488;9.202;2023-01-15T06:26:02;1.10;;;0.60;;
17207;SDS011;8720;48.488;9.202;2023-01-15T06:28:32;0.90;;;0.50;;
17207;SDS011;8720;48.488;9.202;2023-01-15T06:31:02;0.80;;;0.50;;
17207;SDS011;8720;48.488;9.202;2023-01-15T06:33:31;0.80;;;0.50;;
17207;SDS011;8720;48.488;9.202;2023-01-15T06:36:01;0.90;;;0.53;;
17207;SDS011;8720;48.488;9.202;2023-01-15T06:38:30;1.17;;;0.60;;
17207;SDS011;8720;48.488;9.202;2023-01-15T06:40:58;1.03;;;0.67;;
17207;SDS011;8720;48.488;9.202;2023-01-15T06:43:26;0.90;;;0.60;;
17207;SDS011;8720;48.488;9.202;2023-01-15T06:46:12;0.80;;;0.50;;
17207;SDS011;8720;48.488;9.202;2023-01-15T06:48:59;0.90;;;0.50;;
17207;SDS011;8720;48.488;9.202;2023-01-15T06:51:26;0.90;;;0.50;;
17207;SDS011;8720;48.488;9.202;2023-01-15T06:53:54;1.00;;;0.60;;
17207;SDS011;8720;48.488;9.202;2023-01-15T06:56:21;0.90;;;0.60;;
17207;SDS011;8720;48.488;9.202;2023-01-15T06:58:48;1.20;;;0.60;;
17207;SDS011;8720;48.488;9.202;2023-01-15T07:01:16;0.90;;;0.57;;
17207;SDS011;8720;48.488;9.202;2023-01-15T07:03:44;1.00;;;0.60;;
17207;SDS011;8720;48.488;9.202;2023-01-15T07:06:11;1.17;;;0.70;;
17207;SDS011;8720;48.488;9.202;2023-01-15T07:08:39;0.90;;;0.53;;
17207;SDS011;8720;48.488;9.202;2023-01-15T07:11:07;0.90;;;0.60;;
17207;SDS011;8720;48.488;9.202;2023-01-15T07:13:35;1.00;;;0.60;;
17207;SDS011;8720;48.488;9.202;2023-01-15T07:16:03;1.33;;;0.70;;
17207;SDS011;8720;48.488;9.202;2023-01-15T07:18:52;1.00;;;0.70;;
17207;SDS011;8720;48.488;9.202;2023-01-15T07:21:21;2.30;;;1.90;;
17207;SDS011;8720;48.488;9.202;2023-01-15T07:23:48;4.30;;;2.80;;
17207;SDS011;8720;48.488;9.202;2023-01-15T07:26:16;4.20;;;2.67;;
17207;SDS011;8720;48.488;9.202;2023-01-15T07:28:43;4.90;;;4.17;;
17207;SDS011;8720;48.488;9.202;2023-01-15T07:31:10;3.40;;;3.10;;
17207;SDS011;8720;48.488;9.202;2023-01-15T07:33:38;1.30;;;0.97;;
17207;SDS011;8720;48.488;9.202;2023-01-15T07:36:06;1.30;;;0.80;;
17207;SDS011;8720;48.488;9.202;2023-01-15T07:38:34;1.03;;;0.73;;
17207;SDS011;8720;48.488;9.202;2023-01-15T07:41:01;1.20;;;0.90;;
17207;SDS011;8720;48.488;9.202;2023-01-15T07:43:46;1.10;;;0.67;;
17207;SDS011;8720;48.488;9.202;2023-01-15T07:46:31;1.00;;;0.70;;
17207;SDS011;8720;48.488;9.202;2023-01-15T07:49:15;1.67;;;0.67;;
17207;SDS011;8720;48.488;9.202;2023-01-15T07:52:02;1.00;;;0.70;;
17207;SDS011;8720;48.488;9.202;2023-01-15T07:54:29;1.03;;;0.70;;
17207;SDS011;8720;48.488;9.202;2023-01-15T07:56:56;1.20;;;0.80;;
17207;SDS011;8720;48.488;9.202;2023-01-15T07:59:24;1.20;;;1.00;;
17207;SDS011;8720;48.488;9.202;2023-01-15T08:01:51;1.10;;;0.80;;
17207;SDS011;8720;48.488;9.202;2023-01-15T08:04:18;1.23;;;0.90;;
17207;SDS011;8720;48.488;9.202;2023-01-15T08:06:45;1.13;;;0.80;;
17207;SDS011;8720;48.488;9.202;2023-01-15T08:09:14;1.20;;;0.93;;
17207;SDS011;8720;48.488;9.202;2023-01-15T08:11:41;1.00;;;0.60;;
17207;SDS011;8720;48.488;9.202;2023-01-15T08:14:26;1.10;;;0.80;;
17207;SDS011;8720;48.488;9.202;2023-01-15T08:17:11;1.47;;;0.90;;
17207;SDS011;8720;48.488;9.202;2023-01-15T08:19:38;4.20;;;2.23;;
17207;SDS011;8720;48.488;9.202;2023-01-15T08:22:05;1.70;;;1.53;;
17207;SDS011;8720;48.488;9.202;2023-01-15T08:24:36;1.40;;;1.30;;
17207;SDS011;8720;48.488;9.202;2023-01-15T08:27:04;1.27;;;1.03;;
17207;SDS011;8720;48.488;9.202;2023-01-15T08:29:32;1.07;;;0.73;;
17207;SDS011;8720;48.488;9.202;2023-01-15T08:31:59;1.10;;;0.80;;
17207;SDS011;8720;48.488;9.202;2023-01-15T08:34:26;1.20;;;0.80;;
17207;SDS011;8720;48.488;9.202;2023-01-15T08:36:54;0.80;;;0.50;;
17207;SDS011;8720;48.488;9.202;2023-01-15T08:39:24;0.90;;;0.60;;
17207;SDS011;8720;48.488;9.202;2023-01-15T08:41:54;0.90;;;0.70;;
17207;SDS011;8720;48.488;9.202;2023-01-15T08:44:21;1.00;;;0.70;;
17207;SDS011;8720;48.488;9.202;2023-01-15T08:46:49;1.00;;;0.80;;
17207;SDS011;8720;48.488;9.202;2023-01-15T08:49:18;2.10;;;1.10;;
17207;SDS011;8720;48.488;9.202;2023-01-15T08:51:47;1.20;;;1.10;;
17207;SDS011;8720;48.488;9.202;2023-01-15T08:54:18;1.50;;;1.13;;
17207;SDS011;8720;48.488;9.202;2023-01-15T08:56:48;1.90;;;1.60;;
17207;SDS011;8720;48.488;9.202;2023-01-15T08:59:17;7.00;;;5.30;;
17207;SDS011;8720;48.488;9.202;2023-01-15T09:01:44;8.40;;;6.43;;
17207;SDS011;8720;48.488;9.202;2023-01-15T09:04:12;4.20;;;3.20;;
17207;SDS011;8720;48.488;9.202;2023-01-15T09:06:41;2.23;;;1.50;;
17207;SDS011;8720;48.488;9.202;2023-01-15T09:09:09;1.50;;;1.20;;
17207;SDS011;8720;48.488;9.202;2023-01-15T09:11:37;1.20;;;0.90;;
17207;SDS011;8720;48.488;9.202;2023-01-15T09:14:05;1.20;;;0.60;;
17207;SDS011;8720;48.488;9.202;2023-01-15T09:16:34;1.00;;;0.70;;
17207;SDS011;8720;48.488;9.202;2023-01-15T09:19:02;1.10;;;0.80;;
17207;SDS011;8720;48.488;9.202;2023-01-15T09:21:31;1.10;;;0.80;;
17207;SDS011;8720;48.488;9.202;2023-01-15T09:23:59;1.00;;;0.77;;
17207;SDS011;8720;48.488;9.202;2023-01-15T09:26:27;1.10;;;1.00;;
17207;SDS011;8720;48.488;9.202;2023-01-15T09:28:57;4.60;;;1.57;;
17207;SDS011;8720;48.488;9.202;2023-01-15T09:31:26;1.90;;;1.77;;
17207;SDS011;8720;48.488;9.202;2023-01-15T09:33:55;1.70;;;1.20;;
17207;SDS011;8720;48.488;9.202;2023-01-15T09:36:23;1.70;;;1.00;;
17207;SDS011;8720;48.488;9.202;2023-01-15T09:38:54;1.30;;;1.03;;
17207;SDS011;8720;48.488;9.202;2023-01-15T09:41:23;1.30;;;0.80;;
17207;SDS011;8720;48.488;9.202;2023-01-15T09:44:19;1.00;;;0.80;;
17207;SDS011;8720;48.488;9.202;2023-01-15T09:47:03;1.50;;;0.70;;
17207;SDS011;8720;48.488;9.202;2023-01-15T09:49:46;1.07;;;0.80;;
17207;SDS011;8720;48.488;9.202;2023-01-15T09:52:48;1.07;;;0.70;;
17207;SDS011;8720;48.488;9.202;2023-01-15T09:55:41;0.90;;;0.67;;
17207;SDS011;8720;48.488;9.202;2023-01-15T09:58:12;1.30;;;0.80;;
17207;SDS011;8720;48.488;9.202;2023-01-15T10:00:43;1.00;;;0.80;;
17207;SDS011;8720;48.488;9.202;2023-01-15T10:03:17;2.00;;;1.30;;
17207;SDS011;8720;48.488;9.202;2023-01-15T10:06:02;1.60;;;1.30;;
17207;SDS011;8720;48.488;9.202;2023-01-15T10:08:41;1.20;;;1.00;;
17207;SDS011;8720;48.488;9.202;2023-01-15T10:11:19;1.20;;;1.10;;
17207;SDS011;8720;48.488;9.202;2023-01-15T10:14:22;1.90;;;1.10;;
17207;SDS011;8720;48.488;9.202;2023-01-15T10:17:15;1.70;;;1.10;;
17207;SDS011;8720;48.488;9.202;2023-01-15T10:19:50;1.67;;;0.70;;
17207;SDS011;8720;48.488;9.202;2023-01-15T10:22:29;1.40;;;1.20;;
17207;SDS011;8720;48.488;9.202;2023-01-15T10:25:13;1.20;;;0.90;;
17207;SDS011;8720;48.488;9.202;2023-01-15T10:27:49;1.10;;;0.80;;
17207;SDS011;8720;48.488;9.202;2023-01-15T10:30:21;1.30;;;0.90;;
17207;SDS011;8720;48.488;9.202;2023-01-15T10:32:59;1.40;;;0.93;;
17207;SDS011;8720;48.488;9.202;2023-01-15T10:35:48;0.90;;;0.60;;
17207;SDS011;8720;48.488;9.202;2023-01-15T10:38:25;1.50;;;0.70;;
17207;SDS011;8720;48.488;9.202;2023-01-15T10:41:08;0.90;;;0.60;;
17207;SDS011;8720;48.488;9.202;2023-01-15T10:44:13;1.10;;;0.90;;
17207;SDS011;8720;48.488;9.202;2023-01-15T10:46:48;1.00;;;0.80;;
17207;SDS011;8720;48.488;9.202;2023-01-15T10:49:21;1.10;;;0.87;;
17207;SDS011;8720;48.488;9.202;2023-01-15T10:51:54;1.37;;;0.70;;
17207;SDS011;8720;48.488;9.202;2023-01-15T10:54:30;1.13;;;0.77;;
17207;SDS011;8720;48.488;9.202;2023-01-15T10:57:06;1.87;;;0.80;;
17207;SDS011;8720;48.488;9.202;2023-01-15T10:59:41;0.90;;;0.60;;
17207;SDS011;8720;48.488;9.202;2023-01-15T11:02:21;0.93;;;0.70;;
17207;SDS011;8720;48.488;9.202;2023-01-15T11:04:55;0.97;;;0.63;;
17207;SDS011;8720;48.488;9.202;2023-01-15T11:07:24;0.90;;;0.60;;
17207;SDS011;8720;48.488;9.202;2023-01-15T11:10:04;1.00;;;0.70;;
17207;SDS011;8720;48.488;9.202;2023-01-15T11:12:38;1.00;;;0.70;;
17207;SDS011;8720;48.488;9.202;2023-01-15T11:15:32;0.90;;;0.63;;
17207;SDS011;8720;48.488;9.202;2023-01-15T11:18:18;1.83;;;1.00;;
17207;SDS011;8720;48.488;9.202;2023-01-15T11:21:10;1.10;;;0.70;;
17207;SDS011;8720;48.488;9.202;2023-01-15T11:23:42;2.13;;;0.90;;
17207;SDS011;8720;48.488;9.202;2023-01-15T11:26:16;1.00;;;0.73;;
17207;SDS011;8720;48.488;9.202;2023-01-15T11:28:49;1.67;;;0.80;;
17207;SDS011;8720;48.488;9.202;2023-01-15T11:31:18;1.20;;;0.80;;
17207;SDS011;8720;48.488;9.202;2023-01-15T11:33:54;1.13;;;0.90;;
17207;SDS011;8720;48.488;9.202;2023-01-15T11:36:27;1.20;;;1.00;;
17207;SDS011;8720;48.488;9.202;2023-01-15T11:38:56;1.17;;;0.90;;
17207;SDS011;8720;48.488;9.202;2023-01-15T11:41:28;1.07;;;0.73;;
17207;SDS011;8720;48.488;9.202;2023-01-15T11:44:11;1.27;;;0.80;;
17207;SDS011;8720;48.488;9.202;2023-01-15T11:46:58;1.10;;;0.70;;
17207;SDS011;8720;48.488;9.202;2023-01-15T11:49:48;1.10;;;0.80;;
17207;SDS011;8720;48.488;9.202;2023-01-15T11:52:40;1.10;;;0.90;;
17207;SDS011;8720;48.488;9.202;2023-01-15T11:55:14;1.40;;;1.17;;
17207;SDS011;8720;48.488;9.202;2023-01-15T11:57:47;1.70;;;0.90;;
17207;SDS011;8720;48.488;9.202;2023-01-15T12:00:19;1.20;;;0.80;;
17207;SDS011;8720;48.488;9.202;2023-01-15T12:02:54;1.30;;;1.00;;
17207;SDS011;8720;48.488;9.202;2023-01-15T12:05:30;1.87;;;1.33;;
17207;SDS011;8720;48.488;9.202;2023-01-15T12:08:01;1.20;;;0.90;;
17207;SDS011;8720;48.488;9.202;2023-01-15T12:10:42;1.77;;;1.23;;
17207;SDS011;8720;48.488;9.202;2023-01-15T12:13:38;1.20;;;0.90;;
17207;SDS011;8720;48.488;9.202;2023-01-15T12:16:21;1.20;;;0.90;;
17207;SDS011;8720;48.488;9.202;2023-01-15T12:18:56;1.00;;;0.70;;
17207;SDS011;8720;48.488;9.202;2023-01-15T12:24:28;1.23;;;0.87;;
17207;SDS011;8720;48.488;9.202;2023-01-15T12:27:13;2.23;;;1.10;;
17207;SDS011;8720;48.488;9.202;2023-01-15T12:30:04;1.10;;;0.80;;
17207;SDS011;8720;48.488;9.202;2023-01-15T12:32:51;1.37;;;1.10;;
17207;SDS011;8720;48.488;9.202;2023-01-15T12:35:33;2.00;;;1.40;;
17207;SDS011;8720;48.488;9.202;2023-01-15T12:38:09;2.03;;;1.57;;
17207;SDS011;8720;48.488;9.202;2023-01-15T12:40:46;2.90;;;2.40;;
17207;SDS011;8720;48.488;9.202;2023-01-15T12:43:21;1.47;;;1.17;;
17207;SDS011;8720;48.488;9.202;2023-01-15T12:46:11;1.30;;;0.80;;
17207;SDS011;8720;48.488;9.202;2023-01-15T12:48:45;1.23;;;0.80;;
17207;SDS011;8720;48.488;9.202;2023-01-15T12:51:23;1.07;;;0.80;;
17207;SDS011;8720;48.488;9.202;2023-01-15T12:54:00;1.10;;;0.70;;
17207;SDS011;8720;48.488;9.202;2023-01-15T12:56:40;1.80;;;0.90;;
17207;SDS011;8720;48.488;9.202;2023-01-15T12:59:21;1.00;;;0.70;;
17207;SDS011;8720;48.488;9.202;2023-01-15T13:01:57;1.40;;;0.80;;
17207;SDS011;8720;48.488;9.202;2023-01-15T13:04:41;1.50;;;0.70;;
17207;SDS011;8720;48.488;9.202;2023-01-15T13:07:17;0.90;;;0.70;;
17207;SDS011;8720;48.488;9.202;2023-01-15T13:09:54;1.03;;;0.70;;
17207;SDS011;8720;48.488;9.202;2023-01-15T13:12:32;1.00;;;0.67;;
17207;SDS011;8720;48.488;9.202;2023-01-15T13:15:00;1.40;;;0.90;;
17207;SDS011;8720;48.488;9.202;2023-01-15T13:17:31;1.00;;;0.90;;
17207;SDS011;8720;48.488;9.202;2023-01-15T13:20:22;1.10;;;0.90;;
17207;SDS011;8720;48.488;9.202;2023-01-15T13:23:06;1.20;;;0.83;;
17207;SDS011;8720;48.488;9.202;2023-01-15T13:25:45;1.00;;;0.80;;
17207;SDS011;8720;48.488;9.202;2023-01-15T13:28:51;1.00;;;0.80;;
17207;SDS011;8720;48.488;9.202;2023-01-15T13:31:45;1.00;;;0.70;;
17207;SDS011;8720;48.488;9.202;2023-01-15T13:34:25;1.10;;;0.90;;
17207;SDS011;8720;48.488;9.202;2023-01-15T13:37:16;1.10;;;0.80;;
17207;SDS011;8720;48.488;9.202;2023-01-15T13:39:52;1.43;;;0.87;;
17207;SDS011;8720;48.488;9.202;2023-01-15T13:42:24;1.80;;;0.80;;
17207;SDS011;8720;48.488;9.202;2023-01-15T13:44:57;1.73;;;0.80;;
17207;SDS011;8720;48.488;9.202;2023-01-15T13:47:31;1.30;;;0.90;;
17207;SDS011;8720;48.488;9.202;2023-01-15T13:50:05;2.63;;;0.90;;
17207;SDS011;8720;48.488;9.202;2023-01-15T13:52:43;1.23;;;1.00;;
17207;SDS011;8720;48.488;9.202;2023-01-15T13:55:15;1.93;;;0.90;;
17207;SDS011;8720;48.488;9.202;2023-01-15T13:57:51;1.07;;;0.97;;
17207;SDS011;8720;48.488;9.202;2023-01-15T14:00:26;1.10;;;0.90;;
17207;SDS011;8720;48.488;9.202;2023-01-15T14:02:58;1.40;;;1.00;;
17207;SDS011;8720;48.488;9.202;2023-01-15T14:05:30;2.10;;;1.20;;
17207;SDS011;8720;48.488;9.202;2023-01-15T14:08:00;1.33;;;1.10;;
17207;SDS011;8720;48.488;9.202;2023-01-15T14:10:41;1.10;;;0.83;;
17207;SDS011;8720;48.488;9.202;2023-01-15T14:13:22;2.03;;;0.80;;
17207;SDS011;8720;48.488;9.202;2023-01-15T14:16:21;1.20;;;0.80;;
17207;SDS011;8720;48.488;9.202;2023-01-15T14:22:28;1.60;;;1.10;;
17207;SDS011;8720;48.488;9.202;2023-01-15T14:25:16;1.13;;;0.97;;
17207;SDS011;8720;48.488;9.202;2023-01-15T14:28:01;1.20;;;0.93;;
17207;SDS011;8720;48.488;9.202;2023-01-15T14:31:03;1.20;;;0.90;;
17207;SDS011;8720;48.488;9.202;2023-01-15T14:34:04;1.67;;;0.87;;
17207;SDS011;8720;48.488;9.202;2023-01-15T14:36:48;1.10;;;0.80;;
17207;SDS011;8720;48.488;9.202;2023-01-15T14:39:25;2.50;;;0.90;;
17207;SDS011;8720;48.488;9.202;2023-01-15T14:42:04;1.30;;;0.90;;
17207;SDS011;8720;48.488;9.202;2023-01-15T14:45:06;2.30;;;0.80;;
17207;SDS011;8720;48.488;9.202;2023-01-15T14:47:45;1.20;;;0.77;;
17207;SDS011;8720;48.488;9.202;2023-01-15T14:50:20;1.33;;;0.80;;
17207;SDS011;8720;48.488;9.202;2023-01-15T14:52:57;1.40;;;1.00;;
17207;SDS011;8720;48.488;9.202;2023-01-15T14:55:36;1.20;;;1.10;;
17207;SDS011;8720;48.488;9.202;2023-01-15T14:58:11;1.80;;;0.80;;
17207;SDS011;8720;48.488;9.202;2023-01-15T15:00:51;1.90;;;0.90;;
17207;SDS011;8720;48.488;9.202;2023-01-15T15:03:24;1.07;;;0.90;;
17207;SDS011;8720;48.488;9.202;2023-01-15T15:06:03;1.53;;;0.87;;
17207;SDS011;8720;48.488;9.202;2023-01-15T15:08:36;1.47;;;1.10;;
17207;SDS011;8720;48.488;9.202;2023-01-15T15:11:13;2.57;;;1.20;;
17207;SDS011;8720;48.488;9.202;2023-01-15T15:14:06;4.90;;;3.47;;
17207;SDS011;8720;48.488;9.202;2023-01-15T15:16:39;1.80;;;1.40;;
17207;SDS011;8720;48.488;9.202;2023-01-15T15:19:14;2.80;;;2.00;;
17207;SDS011;8720;48.488;9.202;2023-01-15T15:21:52;2.83;;;1.20;;
17207;SDS011;8720;48.488;9.202;2023-01-15T15:24:26;1.33;;;1.00;;
17207;SDS011;8720;48.488;9.202;2023-01-15T15:27:10;1.50;;;1.10;;
17207;SDS011;8720;48.488;9.202;2023-01-15T15:29:41;2.60;;;1.20;;
17207;SDS011;8720;48.488;9.202;2023-01-15T15:32:09;1.80;;;1.10;;
17207;SDS011;8720;48.488;9.202;2023-01-15T15:34:43;2.20;;;1.70;;
17207;SDS011;8720;48.488;9.202;2023-01-15T15:37:16;1.30;;;1.00;;
17207;SDS011;8720;48.488;9.202;2023-01-15T15:39:50;2.70;;;2.20;;
17207;SDS011;8720;48.488;9.202;2023-01-15T15:42:23;2.93;;;1.80;;
17207;SDS011;8720;48.488;9.202;2023-01-15T15:45:15;1.77;;;1.30;;
17207;SDS011;8720;48.488;9.202;2023-01-15T15:48:12;1.40;;;1.20;;
17207;SDS011;8720;48.488;9.202;2023-01-15T15:51:02;1.87;;;1.00;;
17207;SDS011;8720;48.488;9.202;2023-01-15T15:53:31;1.30;;;1.03;;